This is the latest recevied weather packets stored in our database for station/object WX6HNX-2. If no packets are shown the sender has not sent any weather packets the latest 10 day(s).
| Time | Temp. | Humidity | Pressure | Rain* | Wind** | Luminosity | Snow |
|---|---|---|---|---|---|---|---|
| 1778128722 | 14.44° C | 82% | 1019.3 hPa | 0 mm | - | - | - |
| 1778128277 | 14.44° C | 82% | 1019.1 hPa | 0 mm | - | - | - |
| 1778127798 | 15° C | 81% | 1019.1 hPa | 0 mm | - | - | - |
| 1778127558 | 15° C | 81% | 1019 hPa | 0 mm | - | - | - |
| 1778127318 | 15° C | 80% | 1019 hPa | 0 mm | - | - | - |
| 1778127077 | 15.56° C | 79% | 1019 hPa | 0 mm | - | - | - |
| 1778126838 | 15.56° C | 79% | 1018.9 hPa | 0 mm | - | - | - |
| 1778126357 | 15.56° C | 78% | 1018.8 hPa | 0 mm | - | - | - |
| 1778125877 | 16.11° C | 77% | 1018.6 hPa | 0 mm | - | - | - |
| 1778125091 | 16.67° C | 76% | 1018.6 hPa | 0 mm | - | - | - |
| 1778124851 | 16.67° C | 75% | 1018.5 hPa | 0 mm | - | - | - |
| 1778105490 | 22.78° C | 57% | 1018.4 hPa | 0 mm | - | - | - |
| 1778103444 | 22.78° C | 58% | 1018.8 hPa | 0 mm | - | - | - |
| 1778103204 | 22.78° C | 60% | 1018.8 hPa | 0 mm | - | - | - |
| 1778102964 | 22.78° C | 59% | 1018.9 hPa | 0 mm | - | - | - |
| 1778100864 | 21.67° C | 62% | 1018.4 hPa | 0 mm | - | - | - |
| 1778100624 | 21.67° C | 62% | 1018.4 hPa | 0 mm | - | - | - |
| 1778097744 | 21.11° C | 62% | 1018.8 hPa | 0 mm | - | - | - |
| 1778096303 | 20.56° C | 63% | 1018.9 hPa | 0 mm | - | - | - |
| 1778091983 | 19.44° C | 62% | 1019.5 hPa | 0 mm | - | - | - |
| 1778089172 | 18.33° C | 62% | 1019.6 hPa | 0 mm | - | - | - |
| 1778088932 | 18.33° C | 62% | 1019.6 hPa | 0 mm | - | - | - |
| 1778088692 | 17.78° C | 63% | 1019.5 hPa | 0 mm | - | - | - |
| 1778088452 | 17.78° C | 62% | 1019.4 hPa | 0 mm | - | - | - |
| 1778088212 | 17.78° C | 61% | 1019.4 hPa | 0 mm | - | - | - |
* Rain latest hour (hover to see other rain measurements)
** Current wind speed in m/s (hover to see current wind gust speed)